Time;durP1;ratioP1;P1;durP2;ratioP2;P2;SDS_P1;SDS_P2;PMS_P1;PMS_P2;Temp;Humidity;BMP_temperature;BMP_pressure;BME280_temperature;BME280_humidity;BME280_pressure;Samples;Min_cycle;Max_cycle;Signal;HPM_P1;HPM_P2
2022/12/13 00:01:51;;;;;;;38.67;15.25;;;-7.40;99.90;;;-9.74;100.00;100484.38;4911484;29;20757;-77
2022/12/13 00:04:20;;;;;;;38.63;15.50;;;-7.60;99.90;;;-9.86;100.00;100485.06;4911419;29;20047;-76
2022/12/13 00:06:46;;;;;;;35.55;14.73;;;-7.70;99.90;;;-9.99;100.00;100484.94;4910434;29;20107;-77
2022/12/13 00:09:16;;;;;;;36.27;15.27;;;-7.80;99.90;;;-10.14;100.00;100481.38;4899568;29;20093;-77
2022/12/13 00:11:43;;;;;;;31.95;13.18;;;-7.90;99.90;;;-10.27;100.00;100484.72;4907450;29;20066;-76
2022/12/13 00:14:12;;;;;;;38.40;15.93;;;-8.10;99.90;;;-10.34;100.00;100480.75;4904961;29;20381;-76
2022/12/13 00:16:39;;;;;;;36.70;14.52;;;-8.20;99.90;;;-10.43;100.00;100476.00;4911078;29;20396;-76
2022/12/13 00:19:05;;;;;;;33.58;13.88;;;-8.30;99.90;;;-10.58;100.00;100473.28;4909789;29;20080;-76
2022/12/13 00:21:32;;;;;;;34.95;13.10;;;-8.40;99.90;;;-10.66;100.00;100470.19;4910146;29;20446;-76
2022/12/13 00:24:00;;;;;;;37.92;14.60;;;-8.50;99.90;;;-10.76;100.00;100469.00;4909526;29;20043;-77
2022/12/13 00:26:30;;;;;;;32.92;13.40;;;-8.70;99.90;;;-10.90;100.00;100473.22;4910831;29;20462;-76
2022/12/13 00:29:01;;;;;;;30.45;12.73;;;-8.80;99.90;;;-11.01;100.00;100470.34;4908853;29;20039;-77
2022/12/13 00:31:30;;;;;;;35.65;12.93;;;-8.90;99.90;;;-11.01;100.00;100470.34;4910913;29;20472;-77
2022/12/13 00:33:55;;;;;;;33.45;13.35;;;-8.90;99.90;;;-11.08;100.00;100469.81;4906198;29;20853;-76
2022/12/13 00:36:21;;;;;;;31.63;13.52;;;-8.90;99.90;;;-11.14;100.00;100464.88;4910826;29;20020;-76
2022/12/13 00:38:59;;;;;;;37.78;14.38;;;-9.00;99.90;;;-11.14;100.00;100471.00;4909592;29;20036;-76
2022/12/13 00:41:35;;;;;;;32.75;13.48;;;-9.00;99.90;;;-11.13;100.00;100469.19;4906330;29;20126;-76
2022/12/13 00:44:03;;;;;;;30.65;12.30;;;-9.00;99.90;;;-11.14;100.00;100462.22;4910982;29;20044;-76
2022/12/13 00:46:29;;;;;;;36.80;14.18;;;-9.00;99.90;;;-11.20;100.00;100460.75;4908750;29;20509;-75
2022/12/13 00:49:00;;;;;;;35.20;13.32;;;-9.10;99.90;;;-11.27;100.00;100457.63;4909453;29;20367;-75
2022/12/13 00:51:29;;;;;;;39.80;14.30;;;-9.10;99.90;;;-11.32;100.00;100453.53;4909160;29;20722;-75
2022/12/13 00:53:55;;;;;;;35.58;14.60;;;-9.20;99.90;;;-11.35;100.00;100449.25;4911378;29;20126;-75
2022/12/13 00:56:25;;;;;;;32.45;13.35;;;-9.20;99.90;;;-11.37;100.00;100448.50;4909754;29;20060;-75
2022/12/13 00:58:52;;;;;;;33.72;13.55;;;-9.30;99.90;;;-11.36;100.00;100454.63;4910141;29;20064;-76
2022/12/13 01:01:24;;;;;;;36.40;13.57;;;-9.30;99.90;;;-11.30;100.00;100449.84;4908652;29;20111;-76
2022/12/13 01:03:52;;;;;;;29.20;12.30;;;-9.30;99.90;;;-11.35;100.00;100448.41;4910731;29;20040;-75
2022/12/13 01:06:28;;;;;;;37.63;12.43;;;-9.30;99.90;;;-11.38;100.00;100443.31;4905793;29;20035;-76
2022/12/13 01:08:54;;;;;;;28.70;12.52;;;-9.30;99.90;;;-11.50;100.00;100432.47;4909837;29;20044;-75
2022/12/13 01:11:20;;;;;;;28.10;12.80;;;-9.40;99.90;;;-11.49;100.00;100442.06;4909551;29;20024;-75
2022/12/13 01:13:46;;;;;;;31.40;12.27;;;-9.40;99.90;;;-11.51;100.00;100435.22;4908387;29;20289;-75
2022/12/13 01:16:12;;;;;;;27.92;12.32;;;-9.40;99.90;;;-11.49;100.00;100439.44;4909484;29;20186;-75
2022/12/13 01:18:40;;;;;;;34.17;12.77;;;-9.40;99.90;;;-11.55;100.00;100431.88;4909954;29;20059;-76
2022/12/13 01:21:12;;;;;;;28.75;12.65;;;-9.50;99.90;;;-11.46;100.00;100443.72;4907468;29;20032;-76
2022/12/13 01:23:39;;;;;;;32.25;12.88;;;-9.40;99.90;;;-11.37;100.00;100442.38;4907895;29;20286;-76
2022/12/13 01:26:08;;;;;;;30.05;12.35;;;-9.20;99.90;;;-11.27;100.00;100439.19;4910276;29;20430;-75
2022/12/13 01:28:34;;;;;;;32.13;12.38;;;-9.10;99.90;;;-11.20;100.00;100439.69;4909996;29;20439;-75
2022/12/13 01:31:07;;;;;;;32.45;13.73;;;-9.00;99.90;;;-11.29;100.00;100429.66;4910226;29;20131;-75
2022/12/13 01:33:34;;;;;;;31.58;12.32;;;-9.00;99.90;;;-11.19;100.00;100438.75;4908808;29;20032;-75
2022/12/13 01:36:07;;;;;;;29.08;12.07;;;-9.00;99.90;;;-11.15;100.00;100437.66;4909710;29;20073;-75
2022/12/13 01:38:34;;;;;;;31.50;13.43;;;-9.00;99.90;;;-11.10;100.00;100433.94;4902349;29;20051;-76
2022/12/13 01:41:00;;;;;;;32.00;13.25;;;-8.90;99.90;;;-11.23;100.00;100421.41;4908500;29;20028;-75
2022/12/13 01:43:53;;;;;;;34.20;12.13;;;-8.90;99.90;;;-11.21;100.00;100432.72;4917921;29;20399;-76
2022/12/13 01:46:19;;;;;;;31.50;12.55;;;-9.10;99.90;;;-11.29;100.00;100424.38;4908437;29;20442;-77
2022/12/13 01:49:05;;;;;;;35.63;12.57;;;-9.20;99.90;;;-11.36;100.00;100425.66;4907898;29;20047;-75
2022/12/13 01:51:51;;;;;;;31.45;11.70;;;-9.20;99.90;;;-11.45;100.00;100422.53;4908932;29;20039;-76
2022/12/13 01:54:29;;;;;;;29.38;11.63;;;-9.30;99.90;;;-11.52;100.00;100423.81;4910331;29;20035;-75
2022/12/13 01:56:58;;;;;;;30.83;12.30;;;-9.40;99.90;;;-11.51;100.00;100433.41;4906373;29;20033;-75
2022/12/13 01:59:26;;;;;;;27.63;11.38;;;-9.40;99.90;;;-11.45;100.00;100427.81;4898878;29;20051;-75
2022/12/13 02:01:52;;;;;;;30.65;11.57;;;-9.30;99.90;;;-11.33;100.00;100431.59;4903966;29;20524;-76
2022/12/13 02:04:29;;;;;;;26.20;12.30;;;-9.20;99.90;;;-11.18;100.00;100432.56;4903194;29;20506;-76
2022/12/13 02:06:56;;;;;;;33.95;13.02;;;-9.00;99.90;;;-11.13;100.00;100433.19;4908623;29;20044;-75
2022/12/13 02:09:23;;;;;;;31.98;12.85;;;-9.00;99.90;;;-11.10;100.00;100441.84;4908317;29;20079;-75
2022/12/13 02:11:50;;;;;;;33.08;12.68;;;-8.90;99.90;;;-11.06;100.00;100443.38;4908941;29;20040;-75
2022/12/13 02:14:16;;;;;;;27.95;11.80;;;-8.90;99.90;;;-10.95;100.00;100442.81;4909103;29;20032;-76
2022/12/13 02:17:21;;;;;;;33.35;13.20;;;-8.80;99.90;;;-10.79;100.00;100443.66;4908659;29;20039;-75
2022/12/13 02:20:05;;;;;;;31.38;12.48;;;-8.70;99.90;;;-10.75;100.00;100437.28;4903944;29;20048;-76
2022/12/13 02:23:11;;;;;;;35.42;13.75;;;-8.50;99.90;;;-10.72;100.00;100449.44;4908392;29;20123;-76
2022/12/13 02:26:10;;;;;;;33.83;12.23;;;-8.50;99.90;;;-10.75;100.00;100449.63;4903040;29;20036;-75
2022/12/13 02:28:45;;;;;;;34.80;12.93;;;-8.50;99.90;;;-10.53;100.00;100449.28;4900631;29;20042;-75
2022/12/13 02:31:30;;;;;;;31.17;12.07;;;-8.40;99.90;;;-10.30;100.00;100445.31;4905481;29;20044;-75
2022/12/13 02:34:12;;;;;;;38.08;14.43;;;-8.20;99.90;;;-10.12;100.00;100437.28;4908351;29;20038;-75
2022/12/13 02:37:20;;;;;;;36.35;13.55;;;-8.00;99.90;;;-9.99;100.00;100434.75;4908277;29;20051;-75
2022/12/13 02:40:12;;;;;;;38.90;14.15;;;-7.90;99.90;;;-9.84;100.00;100423.31;4908488;29;20440;-76
2022/12/13 02:43:05;;;;;;;33.25;14.45;;;-7.70;99.90;;;-9.71;100.00;100431.38;4907167;29;20305;-75
2022/12/13 02:45:45;;;;;;;30.38;13.30;;;-7.60;99.90;;;-9.72;100.00;100418.22;4910218;29;20054;-75
2022/12/13 02:48:17;;;;;;;34.85;14.80;;;-7.50;99.90;;;-9.76;100.00;100422.00;4903177;29;20052;-75
2022/12/13 02:50:45;;;;;;;41.17;13.85;;;-7.60;99.90;;;-9.93;100.00;100417.72;4908199;29;20108;-75
2022/12/13 02:53:14;;;;;;;40.72;15.35;;;-7.70;99.90;;;-10.09;100.00;100417.78;4907031;29;20123;-76
2022/12/13 02:55:40;;;;;;;38.13;15.73;;;-7.90;99.90;;;-10.02;100.00;100419.09;4904570;29;20040;-75
2022/12/13 02:58:06;;;;;;;39.10;15.23;;;-7.90;99.90;;;-9.96;100.00;100421.38;4905172;29;20443;-75
2022/12/13 03:01:03;;;;;;;35.30;15.15;;;-7.90;99.90;;;-10.00;100.00;100419.88;4907449;29;20051;-75
2022/12/13 03:03:49;;;;;;;37.67;14.35;;;-7.80;99.90;;;-10.00;100.00;100423.38;4912022;29;20201;-75
2022/12/13 03:06:45;;;;;;;31.67;13.35;;;-7.80;99.90;;;-10.00;100.00;100426.00;4913184;29;20108;-76
2022/12/13 03:09:42;;;;;;;31.15;13.05;;;-7.80;99.90;;;-10.02;100.00;100419.97;4910405;29;20055;-75
2022/12/13 03:15:55;;;;;;;30.10;12.85;;;-7.90;99.90;;;-10.13;100.00;100414.44;4911133;29;20041;-75
2022/12/13 03:18:26;;;;;;;35.92;13.73;;;-7.90;99.90;;;-10.04;100.00;100416.56;4906969;29;20444;-75
2022/12/13 03:21:05;;;;;;;31.50;13.35;;;-7.90;99.90;;;-9.94;100.00;100411.63;4910819;29;20218;-75
2022/12/13 03:23:31;;;;;;;34.47;13.93;;;-7.80;99.90;;;-9.93;100.00;100417.72;4910232;29;20050;-75
2022/12/13 03:26:12;;;;;;;34.13;13.50;;;-7.80;99.90;;;-9.89;100.00;100412.19;4911056;29;20051;-75
2022/12/13 03:28:39;;;;;;;35.25;14.50;;;-7.70;99.90;;;-9.82;100.00;100407.38;4912092;29;20036;-75
2022/12/13 03:31:06;;;;;;;37.93;13.73;;;-7.70;99.90;;;-9.82;100.00;100412.66;4905123;29;20040;-75
2022/12/13 03:33:32;;;;;;;35.67;13.93;;;-7.60;99.90;;;-9.87;100.00;100409.44;4905503;29;20036;-75
2022/12/13 03:35:59;;;;;;;33.33;13.02;;;-7.70;99.90;;;-9.97;100.00;100402.06;4912573;29;20514;-75
2022/12/13 03:38:27;;;;;;;40.95;14.90;;;-7.80;99.90;;;-9.89;100.00;100400.75;4910961;29;20032;-75
2022/12/13 03:41:09;;;;;;;37.65;15.15;;;-7.80;99.90;;;-9.69;100.00;100389.88;4911870;29;20466;-76
2022/12/13 03:43:35;;;;;;;33.70;14.25;;;-7.60;99.90;;;-9.62;100.00;100392.13;4910922;29;20120;-75
2022/12/13 03:46:01;;;;;;;36.95;15.35;;;-7.50;99.90;;;-9.71;100.00;100390.88;4912288;29;20092;-75
2022/12/13 03:48:27;;;;;;;40.72;15.57;;;-7.50;99.90;;;-9.81;100.00;100385.34;4909239;29;20055;-76
2022/12/13 03:50:54;;;;;;;44.03;15.40;;;-7.60;99.90;;;-9.75;100.00;100395.53;4904175;29;20042;-75
2022/12/13 03:53:21;;;;;;;34.13;14.10;;;-7.50;99.90;;;-9.78;100.00;100392.19;4907715;29;20031;-76
2022/12/13 03:55:47;;;;;;;40.42;14.93;;;-7.60;99.90;;;-9.78;100.00;100390.44;4907575;29;20037;-75
2022/12/13 03:58:13;;;;;;;43.80;16.33;;;-7.60;99.90;;;-9.75;100.00;100386.72;4908522;29;20155;-75
2022/12/13 04:00:39;;;;;;;40.00;14.55;;;-7.60;99.90;;;-9.82;100.00;100396.81;4907743;29;20507;-75
2022/12/13 04:03:05;;;;;;;39.90;14.73;;;-7.60;99.90;;;-9.97;100.00;100388.88;4909874;29;20036;-75
2022/12/13 04:05:31;;;;;;;34.55;14.00;;;-7.80;99.90;;;-10.19;100.00;100391.94;4910396;29;20043;-75
2022/12/13 04:07:57;;;;;;;33.53;13.88;;;-8.00;99.90;;;-10.37;100.00;100396.47;4913023;29;20543;-74
2022/12/13 04:10:24;;;;;;;33.03;13.15;;;-8.20;99.90;;;-10.57;100.00;100385.31;4909072;29;20058;-75
2022/12/13 04:15:34;;;;;;;33.03;13.88;;;-8.40;99.90;;;-10.40;100.00;100394.03;4910471;29;20043;-74
2022/12/13 04:18:00;;;;;;;31.38;13.30;;;-8.30;99.90;;;-10.46;100.00;100392.63;4910783;29;20096;-75
2022/12/13 04:20:26;;;;;;;36.45;14.35;;;-8.30;99.90;;;-10.48;100.00;100406.81;4911576;29;20024;-74
2022/12/13 04:22:52;;;;;;;30.77;13.32;;;-8.30;99.90;;;-10.61;100.00;100398.75;4910057;29;20578;-74
2022/12/13 04:25:18;;;;;;;38.80;13.18;;;-8.40;99.90;;;-10.70;100.00;100397.47;4907737;29;20100;-75
2022/12/13 04:27:45;;;;;;;35.97;13.93;;;-8.50;99.90;;;-10.75;100.00;100399.53;4906700;29;20036;-74
2022/12/13 04:30:12;;;;;;;33.27;13.43;;;-8.60;99.90;;;-10.85;100.00;100400.03;4906678;29;20118;-75
2022/12/13 04:32:37;;;;;;;26.80;12.90;;;-8.70;99.90;;;-10.82;100.00;100406.09;4910225;29;20143;-75
2022/12/13 04:35:04;;;;;;;35.65;13.00;;;-8.70;99.90;;;-10.88;100.00;100400.19;4909931;29;20063;-76
2022/12/13 04:37:30;;;;;;;35.78;13.90;;;-8.70;99.90;;;-10.85;100.00;100394.78;4910907;29;20115;-76
2022/12/13 04:39:57;;;;;;;37.70;15.07;;;-8.70;99.90;;;-10.63;100.00;100398.81;4909731;29;20407;-76
2022/12/13 04:42:22;;;;;;;33.20;12.80;;;-8.60;99.90;;;-10.63;100.00;100398.00;4911108;29;20083;-76
2022/12/13 04:44:51;;;;;;;28.30;13.15;;;-8.50;99.90;;;-10.62;100.00;100397.06;4911350;29;20036;-76
2022/12/13 04:47:16;;;;;;;35.03;13.65;;;-8.50;99.90;;;-10.58;100.00;100391.53;4910059;29;20575;-76
2022/12/13 04:49:43;;;;;;;33.80;14.48;;;-8.40;99.90;;;-10.47;100.00;100403.25;4905269;29;20495;-74
2022/12/13 04:52:09;;;;;;;35.78;14.70;;;-8.30;99.90;;;-10.58;100.00;100399.44;4909925;29;20106;-75
2022/12/13 04:54:35;;;;;;;34.97;13.68;;;-8.40;99.90;;;-10.68;100.00;100392.13;4909920;29;20090;-75
2022/12/13 04:57:01;;;;;;;37.47;13.75;;;-8.50;99.90;;;-10.74;100.00;100398.59;4910814;29;20087;-75
2022/12/13 04:59:27;;;;;;;33.40;13.77;;;-8.60;99.90;;;-10.72;100.00;100394.06;4909830;29;20511;-75
2022/12/13 05:01:53;;;;;;;36.28;13.82;;;-8.60;99.90;;;-10.65;100.00;100398.06;4906713;29;20032;-75
2022/12/13 05:04:18;;;;;;;37.92;13.68;;;-8.50;99.90;;;-10.58;100.00;100402.06;4909552;29;20056;-75
2022/12/13 05:06:44;;;;;;;35.47;14.70;;;-8.50;99.90;;;-10.53;100.00;100395.69;4907711;29;20408;-74
2022/12/13 05:09:10;;;;;;;31.25;13.40;;;-8.40;99.90;;;-10.51;100.00;100397.28;4909903;29;20068;-74
2022/12/13 05:11:36;;;;;;;33.88;13.68;;;-8.40;99.90;;;-10.40;100.00;100389.59;4906990;29;20104;-74
2022/12/13 05:14:02;;;;;;;32.75;13.77;;;-8.30;99.90;;;-10.30;100.00;100391.69;4907282;29;20036;-75
2022/12/13 05:16:27;;;;;;;32.03;13.23;;;-8.20;99.90;;;-10.26;100.00;100391.44;4904506;29;20460;-75
2022/12/13 05:18:53;;;;;;;33.88;13.60;;;-8.10;99.90;;;-10.24;100.00;100383.41;4909426;29;20024;-75
2022/12/13 05:21:19;;;;;;;34.40;14.73;;;-8.10;99.90;;;-10.24;100.00;100379.94;4900786;29;20111;-75
2022/12/13 05:23:45;;;;;;;33.65;15.02;;;-8.10;99.90;;;-10.26;100.00;100378.25;4902931;29;20360;-75
2022/12/13 05:26:11;;;;;;;31.63;15.07;;;-8.10;99.90;;;-10.22;100.00;100360.41;4910017;29;20130;-76
2022/12/13 05:28:37;;;;;;;32.08;13.15;;;-8.00;99.90;;;-10.03;100.00;100376.03;4909443;29;20131;-75
2022/12/13 05:31:10;;;;;;;38.55;15.75;;;-7.80;99.90;;;-10.01;100.00;100382.09;4909383;29;20391;-75
2022/12/13 05:33:37;;;;;;;35.05;14.90;;;-7.80;99.90;;;-9.92;100.00;100370.13;4909413;29;20040;-75
2022/12/13 05:36:04;;;;;;;41.35;14.93;;;-7.70;99.90;;;-9.74;100.00;100373.44;4907887;29;20036;-75
2022/12/13 05:38:30;;;;;;;40.13;14.15;;;-7.60;99.90;;;-9.56;100.00;100368.84;4911078;29;20035;-75
2022/12/13 05:40:57;;;;;;;33.50;14.45;;;-7.50;99.90;;;-9.39;100.00;100370.44;4907256;29;20510;-75
2022/12/13 05:43:23;;;;;;;33.83;13.80;;;-7.40;99.90;;;-9.34;100.00;100374.59;4909949;29;20032;-75
2022/12/13 05:45:49;;;;;;;33.25;14.02;;;-7.30;99.90;;;-9.30;100.00;100362.88;4909244;29;20341;-75
2022/12/13 05:48:15;;;;;;;37.17;15.82;;;-7.20;99.90;;;-9.28;100.00;100358.38;4910168;29;20508;-76
2022/12/13 05:50:41;;;;;;;31.23;14.52;;;-7.20;99.90;;;-9.25;100.00;100355.53;4906491;29;20119;-76
2022/12/13 05:53:08;;;;;;;39.53;16.35;;;-7.10;99.90;;;-9.20;100.00;100371.09;4908992;29;20068;-76
2022/12/13 05:55:37;;;;;;;35.67;14.20;;;-7.00;99.90;;;-9.22;100.00;100363.25;4905406;29;20028;-74
2022/12/13 05:58:03;;;;;;;38.13;15.40;;;-7.00;99.90;;;-9.21;100.00;100366.75;4908119;29;20423;-75
2022/12/13 06:00:29;;;;;;;38.33;15.98;;;-7.00;99.90;;;-9.21;100.00;100364.97;4909240;29;20047;-74
2022/12/13 06:02:55;;;;;;;36.55;15.27;;;-7.00;99.90;;;-9.22;100.00;100362.41;4908980;29;20032;-76
2022/12/13 06:05:21;;;;;;;35.67;13.98;;;-7.00;99.90;;;-9.20;100.00;100371.94;4910128;29;20126;-76
2022/12/13 06:07:47;;;;;;;41.90;14.80;;;-7.00;99.90;;;-9.15;100.00;100361.94;4909770;29;20107;-75
2022/12/13 06:10:13;;;;;;;33.17;14.32;;;-7.00;99.90;;;-9.15;100.00;100364.56;4908671;29;20032;-76
2022/12/13 06:12:39;;;;;;;35.97;14.55;;;-7.00;99.90;;;-9.12;100.00;100366.19;4904012;29;20032;-75
2022/12/13 06:15:05;;;;;;;41.95;16.17;;;-6.90;99.90;;;-9.07;100.00;100368.50;4908760;29;20032;-75
2022/12/13 06:17:35;;;;;;;37.33;15.35;;;-6.90;99.90;;;-9.06;100.00;100379.00;4905072;29;20045;-76
2022/12/13 06:20:03;;;;;;;37.28;15.30;;;-6.90;99.90;;;-9.08;100.00;100378.25;4910102;29;20040;-75
2022/12/13 06:22:29;;;;;;;41.15;14.48;;;-6.90;99.90;;;-9.11;100.00;100368.72;4907381;29;20097;-75
2022/12/13 06:24:55;;;;;;;35.78;14.75;;;-7.00;99.90;;;-9.12;100.00;100369.66;4909052;29;20497;-75
2022/12/13 06:27:21;;;;;;;39.42;14.48;;;-7.00;99.90;;;-9.13;100.00;100377.72;4895439;29;20032;-75
2022/12/13 06:29:47;;;;;;;37.50;15.50;;;-7.00;99.90;;;-9.13;100.00;100373.25;4908328;29;20120;-75
2022/12/13 06:32:13;;;;;;;36.28;14.75;;;-6.90;99.90;;;-9.07;100.00;100373.81;4909114;29;20146;-76
2022/12/13 06:34:38;;;;;;;37.35;14.68;;;-6.90;99.90;;;-9.06;100.00;100373.72;4901851;29;20479;-75
2022/12/13 06:37:09;;;;;;;33.03;14.25;;;-6.90;99.90;;;-9.13;100.00;100386.47;4905709;29;20051;-75
2022/12/13 06:39:35;;;;;;;31.83;13.43;;;-7.00;99.90;;;-9.12;100.00;100382.88;4914980;29;20055;-76
2022/12/13 06:42:04;;;;;;;32.55;14.38;;;-7.00;99.90;;;-9.07;100.00;100381.72;4908005;29;20483;-77
2022/12/13 06:44:31;;;;;;;36.38;14.90;;;-7.00;99.90;;;-9.12;100.00;100371.47;4903002;29;20036;-76
2022/12/13 06:46:58;;;;;;;36.45;13.82;;;-6.90;99.90;;;-9.12;100.00;100385.53;4910152;29;20540;-76
2022/12/13 06:49:25;;;;;;;37.00;15.32;;;-7.00;99.90;;;-9.18;100.00;100380.63;4905725;29;20052;-76
2022/12/13 06:51:52;;;;;;;38.17;14.35;;;-7.00;99.90;;;-9.16;100.00;100380.50;4905228;29;20028;-79
2022/12/13 06:54:19;;;;;;;40.43;14.53;;;-7.00;99.90;;;-9.16;100.00;100385.78;4904461;29;20032;-78
2022/12/13 06:56:44;;;;;;;37.78;14.43;;;-7.00;99.90;;;-9.20;100.00;100387.81;4912755;29;20290;-82
2022/12/13 06:59:11;;;;;;;35.50;14.07;;;-7.00;99.90;;;-9.18;100.00;100388.56;4913639;29;20501;-76
2022/12/13 07:01:37;;;;;;;36.08;15.15;;;-7.00;99.90;;;-9.18;100.00;100390.34;4911755;29;20030;-75
2022/12/13 07:04:05;;;;;;;39.15;14.90;;;-7.00;99.90;;;-9.17;100.00;100400.81;4905849;29;20112;-77
2022/12/13 07:06:30;;;;;;;38.88;14.90;;;-7.00;99.90;;;-9.16;100.00;100399.00;4900380;29;20032;-77
2022/12/13 07:08:57;;;;;;;34.90;14.38;;;-7.00;99.90;;;-9.12;100.00;100405.84;4909467;29;20460;-76
2022/12/13 07:11:27;;;;;;;39.78;14.48;;;-7.00;99.90;;;-9.17;100.00;100403.47;4912311;29;20037;-76
2022/12/13 07:13:54;;;;;;;33.00;14.60;;;-7.00;99.90;;;-9.21;100.00;100404.59;4914666;29;20123;-76
2022/12/13 07:16:22;;;;;;;36.75;13.95;;;-7.00;99.90;;;-9.17;100.00;100408.75;4919637;29;20042;-76
2022/12/13 07:18:54;;;;;;;35.92;14.40;;;-7.00;99.90;;;-9.16;100.00;100410.47;4917455;29;20042;-77
2022/12/13 07:21:20;;;;;;;37.53;14.98;;;-7.00;99.90;;;-9.14;100.00;100405.91;4918101;29;20024;-75
2022/12/13 07:23:46;;;;;;;40.60;14.73;;;-7.00;99.90;;;-9.20;100.00;100406.31;4919070;29;20489;-78
2022/12/13 07:26:15;;;;;;;35.78;13.95;;;-7.00;99.90;;;-9.14;100.00;100418.31;4920778;29;20032;-76
2022/12/13 07:28:41;;;;;;;35.97;14.57;;;-7.00;99.90;;;-9.16;100.00;100407.81;4918535;29;20407;-76
2022/12/13 07:31:09;;;;;;;34.72;14.10;;;-7.10;99.90;;;-9.17;100.00;100407.88;4918811;29;20064;-75
2022/12/13 07:33:35;;;;;;;37.28;14.63;;;-7.10;99.90;;;-9.20;100.00;100411.59;4920478;29;20031;-77
2022/12/13 07:36:12;;;;;;;37.00;13.70;;;-7.00;99.90;;;-9.20;100.00;100408.09;4919174;29;20033;-76
2022/12/13 07:38:38;;;;;;;38.22;14.30;;;-7.00;99.90;;;-9.20;100.00;100414.25;4914249;29;20491;-77
2022/12/13 07:41:05;;;;;;;31.15;13.73;;;-7.00;99.90;;;-9.19;100.00;100415.06;4911417;29;20043;-77
2022/12/13 07:43:32;;;;;;;36.30;14.35;;;-7.00;99.90;;;-9.12;100.00;100422.53;4910278;29;20151;-75
2022/12/13 07:46:00;;;;;;;36.80;13.75;;;-7.00;99.90;;;-9.08;100.00;100417.91;4906804;29;20043;-77
2022/12/13 07:48:28;;;;;;;39.75;14.38;;;-7.00;99.90;;;-9.02;100.00;100416.66;4910884;29;20051;-76
2022/12/13 07:51:00;;;;;;;36.67;14.57;;;-6.90;99.90;;;-9.01;100.00;100427.16;4908819;29;20040;-76
2022/12/13 07:53:27;;;;;;;36.90;14.77;;;-6.90;99.90;;;-8.95;100.00;100418.00;4911997;29;20024;-77
2022/12/13 07:55:53;;;;;;;36.75;15.13;;;-6.90;99.90;;;-8.87;100.00;100418.34;4909136;29;20127;-77
2022/12/13 07:58:19;;;;;;;37.58;15.75;;;-6.80;99.90;;;-8.83;100.00;100416.38;4921455;29;20036;-75
2022/12/13 08:00:45;;;;;;;33.03;13.95;;;-6.70;99.90;;;-8.71;100.00;100418.22;4920365;29;20040;-76
2022/12/13 08:03:12;;;;;;;37.17;15.45;;;-6.70;99.90;;;-8.69;100.00;100415.50;4917453;29;20070;-78
2022/12/13 08:05:38;;;;;;;38.42;13.57;;;-6.60;99.90;;;-8.68;100.00;100422.47;4920110;29;20038;-75
2022/12/13 08:08:10;;;;;;;35.88;14.60;;;-6.60;99.90;;;-8.65;100.00;100421.41;4911202;29;20036;-76
2022/12/13 08:10:36;;;;;;;37.45;15.00;;;-6.60;99.90;;;-8.62;100.00;100424.72;4906546;29;20039;-75
2022/12/13 08:13:03;;;;;;;34.88;13.82;;;-6.60;99.90;;;-8.51;100.00;100429.34;4917256;29;20044;-75
2022/12/13 08:15:29;;;;;;;32.17;14.10;;;-6.50;99.90;;;-8.54;100.00;100433.00;4909917;29;20032;-74
2022/12/13 08:17:56;;;;;;;37.30;14.15;;;-6.40;99.90;;;-8.48;100.00;100430.91;4913336;29;20043;-75
2022/12/13 08:20:22;;;;;;;37.22;14.98;;;-6.40;99.90;;;-8.44;100.00;100425.31;4917451;29;20123;-76
2022/12/13 08:22:56;;;;;;;37.47;14.40;;;-6.40;99.90;;;-8.37;100.00;100428.41;4914161;29;20484;-76
2022/12/13 08:25:23;;;;;;;38.45;14.05;;;-6.30;99.90;;;-8.31;100.00;100424.53;4909667;29;20490;-78
2022/12/13 08:27:49;;;;;;;34.47;13.35;;;-6.30;99.90;;;-8.30;100.00;100429.69;4915931;29;20137;-79
2022/12/13 08:30:14;;;;;;;36.70;14.98;;;-6.20;99.90;;;-8.25;100.00;100424.13;4916869;29;20067;-76
2022/12/13 08:32:40;;;;;;;34.38;14.20;;;-6.20;99.90;;;-8.24;100.00;100424.00;4917137;29;20039;-77
2022/12/13 08:35:07;;;;;;;36.92;15.07;;;-6.20;99.90;;;-8.18;100.00;100425.41;4908245;29;20088;-75
2022/12/13 08:37:33;;;;;;;36.13;14.93;;;-6.10;99.90;;;-8.11;100.00;100431.16;4898086;29;20484;-75
2022/12/13 08:39:59;;;;;;;33.85;14.88;;;-6.10;99.90;;;-8.05;100.00;100427.25;4910104;29;20100;-74
2022/12/13 08:42:24;;;;;;;34.90;13.05;;;-6.00;99.90;;;-7.97;100.00;100425.75;4906935;29;20040;-75
2022/12/13 08:44:52;;;;;;;32.40;14.02;;;-6.00;99.90;;;-7.93;100.00;100420.28;4904712;29;20040;-75
2022/12/13 08:47:21;;;;;;;34.22;14.32;;;-5.90;99.90;;;-7.87;100.00;100427.81;4907587;29;20036;-75
2022/12/13 08:49:47;;;;;;;37.10;12.88;;;-5.90;99.90;;;-7.84;100.00;100419.66;4908020;29;20178;-76
2022/12/13 08:52:12;;;;;;;37.55;14.30;;;-5.80;99.90;;;-7.78;100.00;100419.25;4898936;29;20068;-76
2022/12/13 08:54:38;;;;;;;34.58;14.23;;;-5.80;99.90;;;-7.73;100.00;100425.06;4907820;29;20233;-76
2022/12/13 08:57:04;;;;;;;31.10;13.93;;;-5.70;99.90;;;-7.62;100.00;100423.50;4907193;29;20554;-77
2022/12/13 08:59:30;;;;;;;34.17;15.10;;;-5.60;99.90;;;-7.48;100.00;100420.75;4910289;29;20510;-76
2022/12/13 09:01:56;;;;;;;35.10;14.82;;;-5.50;99.90;;;-7.37;100.00;100426.19;4908579;29;20124;-76
2022/12/13 09:04:22;;;;;;;37.33;15.32;;;-5.40;99.90;;;-7.27;100.00;100417.56;4908660;29;20040;-76
2022/12/13 09:06:48;;;;;;;39.70;15.75;;;-5.30;99.90;;;-7.15;100.00;100430.00;4908708;29;20044;-76
2022/12/13 09:09:14;;;;;;;36.78;15.57;;;-5.20;99.90;;;-7.00;100.00;100435.16;4909326;29;20396;-76
2022/12/13 09:11:39;;;;;;;36.25;15.23;;;-5.00;99.90;;;-6.87;100.00;100429.84;4900315;29;20024;-74
2022/12/13 09:14:06;;;;;;;34.78;15.27;;;-4.90;99.90;;;-6.80;100.00;100431.09;4904715;29;20028;-76
2022/12/13 09:16:35;;;;;;;36.72;14.85;;;-4.80;99.90;;;-6.76;100.00;100435.25;4903611;29;20115;-76
2022/12/13 09:19:03;;;;;;;40.13;14.88;;;-4.80;99.90;;;-6.69;100.00;100438.28;4907432;29;20484;-76
2022/12/13 09:21:28;;;;;;;36.15;14.27;;;-4.70;99.90;;;-6.59;100.00;100446.44;4904726;29;20047;-76
2022/12/13 09:23:55;;;;;;;37.83;15.60;;;-4.60;99.90;;;-6.44;100.00;100437.38;4905589;29;20043;-76
2022/12/13 09:26:21;;;;;;;38.40;16.20;;;-4.50;99.90;;;-6.40;100.00;100438.84;4909270;29;20080;-77
2022/12/13 09:28:46;;;;;;;32.85;14.15;;;-4.40;99.90;;;-6.37;100.00;100438.59;4908468;29;20103;-76
2022/12/13 09:31:24;;;;;;;30.88;13.52;;;-4.30;99.90;;;-6.27;100.00;100433.47;4908281;29;20040;-76
2022/12/13 09:33:51;;;;;;;34.05;14.55;;;-4.20;99.90;;;-6.27;100.00;100436.13;4907046;29;20211;-76
2022/12/13 09:36:19;;;;;;;34.05;14.52;;;-3.80;99.90;;;-6.08;100.00;100437.44;4903106;29;20111;-77
2022/12/13 09:38:46;;;;;;;37.65;15.38;;;-3.40;99.90;;;-5.74;100.00;100456.13;4900841;29;20084;-77
2022/12/13 09:41:33;;;;;;;36.63;15.95;;;-2.90;99.90;;;-5.37;100.00;100450.66;4901388;29;20056;-77
2022/12/13 09:44:23;;;;;;;36.05;16.02;;;-2.40;99.90;;;-4.91;100.00;100454.22;4906070;29;20100;-76
2022/12/13 09:46:52;;;;;;;36.30;15.07;;;-1.80;99.90;;;-4.39;100.00;100448.34;4902177;29;20129;-76
2022/12/13 09:49:30;;;;;;;32.08;14.85;;;-1.40;99.90;;;-3.66;100.00;100450.41;4900189;29;20072;-76
2022/12/13 09:52:00;;;;;;;32.03;13.90;;;-1.10;99.90;;;-3.05;100.00;100439.94;4902985;29;20108;-77
2022/12/13 09:54:27;;;;;;;29.13;13.18;;;-0.80;99.90;;;-2.03;94.47;100438.94;4909065;29;20059;-77
2022/12/13 09:56:56;;;;;;;30.00;14.00;;;-0.20;99.90;;;-1.65;82.85;100436.41;4905795;29;20579;-78
2022/12/13 09:59:31;;;;;;;28.90;13.65;;;0.40;99.90;;;-1.17;77.41;100440.00;4904404;29;20143;-77
2022/12/13 10:02:13;;;;;;;29.27;13.38;;;1.00;99.90;;;-0.11;74.81;100440.63;4903162;29;20043;-76
2022/12/13 10:04:39;;;;;;;26.25;12.32;;;1.10;99.90;;;0.08;71.57;100436.09;4904899;29;20044;-75
2022/12/13 10:07:23;;;;;;;25.02;11.73;;;1.50;99.90;;;0.65;67.57;100433.03;4909534;29;20065;-76